^^

Metar (rayon 200 km actualisée toutes les 30 minutes)






LFBU - Brie/Champniers, France
Distance de la station: SSE 07km
Mise à jour: 27/11/2014 19:00
Pas à jour
partiellement nuageux
partiellement nuageux
 Wind from ESE
Vent: ESE 13 km/h
Température: 11°C
Point de Rosée: 9°C
Humidité: 88%
Baromètre: 998 hPa
Nuages: partiellement nuageux
Visibilité: 10 km
2014/11/27 18:00 LFBU 271800Z AUTO 11007KT 9999 NSC 11/09 Q0998
LFBG - Cognac/Chateaubernard, France
Distance de la station: OSO 35km
Mise à jour: 27/11/2014 20:00
partiellement nuageux
partiellement nuageux
 Wind from ENE
Vent: ENE 15 km/h
Température: 10°C
Wind Chill: 8°C
Point de Rosée: 9°C
Humidité: 94%
Baromètre: 997 hPa
Nuages: partiellement nuageux
Visibilité: 10 km
2014/11/27 19:00 LFBG 271900Z AUTO 07008KT 9999 NSC 10/09 Q0997
 
LFBL - Limoges/Bellegarde, France
Distance de la station: E 82km
Mise à jour: 27/11/2014 20:00
partiellement nuageux
partiellement nuageux
 Wind from E
Vent: E 11 km/h
Température: 11°C
Point de Rosée: 7°C
Humidité: 77%
Baromètre: 999 hPa
Nuages: partiellement nuageux
Visibilité: 10 km
2014/11/27 19:00 LFBL 271900Z AUTO 09006KT 9999 NSC 11/07 Q0999
LFBI - Poitiers/France
Distance de la station: N 93km
Mise à jour: 27/11/2014 20:00
partiellement nuageux
partiellement nuageux
 Wind from E
Vent: E 11 km/h
Température: 11°C
Point de Rosée: 9°C
Humidité: 88%
Baromètre: 998 hPa
Nuages: partiellement nuageux
Visibilité: 10 km
2014/11/27 19:00 LFBI 271900Z AUTO 09006KT 9999 NSC 11/09 Q0998
 
LFBH - La Rochelle/France
Distance de la station: ONO 106km
Mise à jour: 27/11/2014 20:00
partiellement nuageux
partiellement nuageux
 Wind from ESE
Vent: ESE 22 km/h
Température: 11°C
Point de Rosée: 9°C
Humidité: 88%
Baromètre: 996 hPa
Nuages: partiellement nuageux
Visibilité: 10 km
2014/11/27 19:00 LFBH 271900Z AUTO 11012KT 9999 NSC 11/09 Q0996
LFBE - Bergerac/France
Distance de la station: SSE 107km
Mise à jour: 27/11/2014 20:00
partiellement nuageux
partiellement nuageux
 Wind from E
Vent: E 11 km/h
Température: 8°C
Wind Chill: 6°C
Point de Rosée: 7°C
Humidité: 93%
Baromètre: 997 hPa
Nuages: partiellement nuageux
Visibilité: 10 km
2014/11/27 19:00 LFBE 271900Z AUTO 08006KT 9999 NSC 08/07 Q0997
 
LFBD - Bordeaux/France
Distance de la station: SSO 121km
Mise à jour: 27/11/2014 20:00
partiellement nuageux
partiellement nuageux
 Wind from E
Vent: E 15 km/h
Température: 12°C
Point de Rosée: 10°C
Humidité: 88%
Baromètre: 996 hPa
Nuages: partiellement nuageux
Visibilité: 10 km
2014/11/27 19:00 LFBD 271900Z AUTO 10008KT 9999 NSC 12/10 Q0996
LFRI - La Roche-sur-Yon/France
Distance de la station: NO 156km
Mise à jour: 27/11/2014 20:00
Couvert
Couvert
 Wind from ESE
Vent: ESE 15 km/h
Température: 10°C
Wind Chill: 8°C
Point de Rosée: 9°C
Humidité: 94%
Baromètre: 996 hPa
Nuages: Couvert
Visibilité: 10 km
Nuages details: Quelques Nuages 274 m
Couvert 5182 m
2014/11/27 19:00 LFRI 271900Z AUTO 11008KT 9999 FEW009 OVC170 10/09 Q0996
 
LFBC - Cazaux/France
Distance de la station: SO 167km
Mise à jour: 27/11/2014 20:00
partiellement nuageux
partiellement nuageux
 Wind from ESE
Vent: ESE 17 km/h
Température: 12°C
Point de Rosée: 11°C
Humidité: 94%
Baromètre: 995 hPa
Nuages: partiellement nuageux
Visibilité: 10 km
2014/11/27 19:00 LFBC 271900Z AUTO 11009KT 9999 NSC 12/11 Q0995
LFLX - Chateauroux/France
Distance de la station: NE 174km
Mise à jour: 27/11/2014 20:00
partiellement nuageux
partiellement nuageux
 Wind from E
Vent: E 9 km/h
Température: 9°C
Wind Chill: 7°C
Point de Rosée: 9°C
Humidité: 100%
Baromètre: 1000 hPa
Nuages: partiellement nuageux
Visibilité: 7 km
2014/11/27 19:00 LFLX 271900Z AUTO 08005KT 7000 NSC 09/09 Q1000
 
LFBA - Agen/France
Distance de la station: SSE 179km
Mise à jour: 27/11/2014 20:00
partiellement nuageux
partiellement nuageux
 Wind from ESE
Vent: ESE 9 km/h
Température: 10°C
Wind Chill: 9°C
Point de Rosée: 10°C
Humidité: 100%
Baromètre: 996 hPa
Nuages: partiellement nuageux
Visibilité: 10 km
2014/11/27 19:00 LFBA 271900Z AUTO 11005KT 9999 NSC 10/10 Q0996